sensor_id;sensor_type;location;lat;lon;timestamp;P1;durP1;ratioP1;P2;durP2;ratioP2
6392;SDS011;3229;42.674;23.282;2023-05-28T00:00:48;7.93;;;6.27;;
6392;SDS011;3229;42.674;23.282;2023-05-28T00:03:15;12.23;;;6.23;;
6392;SDS011;3229;42.674;23.282;2023-05-28T00:05:44;7.00;;;6.30;;
6392;SDS011;3229;42.674;23.282;2023-05-28T00:08:11;11.40;;;7.10;;
6392;SDS011;3229;42.674;23.282;2023-05-28T00:10:39;7.17;;;6.47;;
6392;SDS011;3229;42.674;23.282;2023-05-28T00:13:07;8.73;;;7.33;;
6392;SDS011;3229;42.674;23.282;2023-05-28T00:15:34;6.77;;;5.83;;
6392;SDS011;3229;42.674;23.282;2023-05-28T00:18:02;7.37;;;5.63;;
6392;SDS011;3229;42.674;23.282;2023-05-28T00:20:29;6.43;;;5.83;;
6392;SDS011;3229;42.674;23.282;2023-05-28T00:22:55;9.57;;;6.27;;
6392;SDS011;3229;42.674;23.282;2023-05-28T00:25:22;7.50;;;5.70;;
6392;SDS011;3229;42.674;23.282;2023-05-28T00:27:49;7.43;;;6.00;;
6392;SDS011;3229;42.674;23.282;2023-05-28T00:30:17;6.47;;;5.87;;
6392;SDS011;3229;42.674;23.282;2023-05-28T00:32:44;6.80;;;5.33;;
6392;SDS011;3229;42.674;23.282;2023-05-28T00:35:11;7.47;;;5.57;;
6392;SDS011;3229;42.674;23.282;2023-05-28T00:37:38;6.47;;;5.77;;
6392;SDS011;3229;42.674;23.282;2023-05-28T00:40:05;9.93;;;5.53;;
6392;SDS011;3229;42.674;23.282;2023-05-28T00:42:33;6.97;;;5.30;;
6392;SDS011;3229;42.674;23.282;2023-05-28T00:45:01;6.87;;;5.47;;
6392;SDS011;3229;42.674;23.282;2023-05-28T00:47:29;5.67;;;5.17;;
6392;SDS011;3229;42.674;23.282;2023-05-28T00:49:56;11.40;;;6.40;;
6392;SDS011;3229;42.674;23.282;2023-05-28T00:52:25;9.43;;;5.00;;
6392;SDS011;3229;42.674;23.282;2023-05-28T00:54:53;6.10;;;5.50;;
6392;SDS011;3229;42.674;23.282;2023-05-28T00:57:21;5.70;;;5.20;;
6392;SDS011;3229;42.674;23.282;2023-05-28T00:59:48;5.60;;;5.10;;
6392;SDS011;3229;42.674;23.282;2023-05-28T01:02:16;5.63;;;5.13;;
6392;SDS011;3229;42.674;23.282;2023-05-28T01:04:44;5.50;;;5.00;;
6392;SDS011;3229;42.674;23.282;2023-05-28T01:07:11;8.87;;;5.40;;
6392;SDS011;3229;42.674;23.282;2023-05-28T01:09:38;5.80;;;5.30;;
6392;SDS011;3229;42.674;23.282;2023-05-28T01:12:06;10.27;;;5.00;;
6392;SDS011;3229;42.674;23.282;2023-05-28T01:14:35;6.80;;;5.17;;
6392;SDS011;3229;42.674;23.282;2023-05-28T01:17:03;6.80;;;5.57;;
6392;SDS011;3229;42.674;23.282;2023-05-28T01:19:30;6.90;;;5.60;;
6392;SDS011;3229;42.674;23.282;2023-05-28T01:22:00;5.90;;;5.40;;
6392;SDS011;3229;42.674;23.282;2023-05-28T01:24:31;5.77;;;5.07;;
6392;SDS011;3229;42.674;23.282;2023-05-28T01:26:59;5.63;;;4.67;;
6392;SDS011;3229;42.674;23.282;2023-05-28T01:29:27;5.90;;;5.00;;
6392;SDS011;3229;42.674;23.282;2023-05-28T01:31:54;6.40;;;5.83;;
6392;SDS011;3229;42.674;23.282;2023-05-28T01:34:21;9.00;;;5.57;;
6392;SDS011;3229;42.674;23.282;2023-05-28T01:36:50;6.37;;;5.77;;
6392;SDS011;3229;42.674;23.282;2023-05-28T01:39:21;7.00;;;5.70;;
6392;SDS011;3229;42.674;23.282;2023-05-28T01:41:52;6.03;;;5.50;;
6392;SDS011;3229;42.674;23.282;2023-05-28T01:44:21;9.60;;;6.30;;
6392;SDS011;3229;42.674;23.282;2023-05-28T01:46:49;8.30;;;5.87;;
6392;SDS011;3229;42.674;23.282;2023-05-28T01:49:18;5.40;;;4.90;;
6392;SDS011;3229;42.674;23.282;2023-05-28T01:51:46;6.40;;;5.63;;
6392;SDS011;3229;42.674;23.282;2023-05-28T01:54:12;7.33;;;5.50;;
6392;SDS011;3229;42.674;23.282;2023-05-28T01:56:39;5.37;;;4.87;;
6392;SDS011;3229;42.674;23.282;2023-05-28T01:59:07;7.43;;;5.63;;
6392;SDS011;3229;42.674;23.282;2023-05-28T02:01:34;6.40;;;5.40;;
6392;SDS011;3229;42.674;23.282;2023-05-28T02:04:02;5.23;;;4.80;;
6392;SDS011;3229;42.674;23.282;2023-05-28T02:06:29;6.67;;;5.97;;
6392;SDS011;3229;42.674;23.282;2023-05-28T02:08:57;6.30;;;5.70;;
6392;SDS011;3229;42.674;23.282;2023-05-28T02:11:25;8.03;;;6.37;;
6392;SDS011;3229;42.674;23.282;2023-05-28T02:13:51;9.67;;;5.30;;
6392;SDS011;3229;42.674;23.282;2023-05-28T02:16:20;5.93;;;5.33;;
6392;SDS011;3229;42.674;23.282;2023-05-28T02:18:49;5.57;;;5.03;;
6392;SDS011;3229;42.674;23.282;2023-05-28T02:21:17;14.73;;;7.10;;
6392;SDS011;3229;42.674;23.282;2023-05-28T02:23:45;5.10;;;4.70;;
6392;SDS011;3229;42.674;23.282;2023-05-28T02:26:12;5.77;;;5.23;;
6392;SDS011;3229;42.674;23.282;2023-05-28T02:28:39;5.83;;;5.33;;
6392;SDS011;3229;42.674;23.282;2023-05-28T02:31:08;6.57;;;5.50;;
6392;SDS011;3229;42.674;23.282;2023-05-28T02:33:36;5.50;;;4.80;;
6392;SDS011;3229;42.674;23.282;2023-05-28T02:36:03;5.17;;;4.73;;
6392;SDS011;3229;42.674;23.282;2023-05-28T02:38:31;11.60;;;5.40;;
6392;SDS011;3229;42.674;23.282;2023-05-28T02:40:58;5.80;;;5.23;;
6392;SDS011;3229;42.674;23.282;2023-05-28T02:43:24;10.00;;;4.97;;
6392;SDS011;3229;42.674;23.282;2023-05-28T02:45:51;5.60;;;5.10;;
6392;SDS011;3229;42.674;23.282;2023-05-28T02:48:18;5.20;;;4.80;;
6392;SDS011;3229;42.674;23.282;2023-05-28T02:50:46;5.93;;;5.07;;
6392;SDS011;3229;42.674;23.282;2023-05-28T02:53:13;4.97;;;4.43;;
6392;SDS011;3229;42.674;23.282;2023-05-28T02:55:40;5.17;;;4.67;;
6392;SDS011;3229;42.674;23.282;2023-05-28T02:58:07;7.37;;;4.90;;
6392;SDS011;3229;42.674;23.282;2023-05-28T03:00:33;8.10;;;4.87;;
6392;SDS011;3229;42.674;23.282;2023-05-28T03:03:00;5.97;;;5.30;;
6392;SDS011;3229;42.674;23.282;2023-05-28T03:05:28;5.77;;;5.20;;
6392;SDS011;3229;42.674;23.282;2023-05-28T03:07:57;5.50;;;5.00;;
6392;SDS011;3229;42.674;23.282;2023-05-28T03:10:24;5.70;;;5.20;;
6392;SDS011;3229;42.674;23.282;2023-05-28T03:12:51;6.57;;;5.40;;
6392;SDS011;3229;42.674;23.282;2023-05-28T03:15:18;5.30;;;4.80;;
6392;SDS011;3229;42.674;23.282;2023-05-28T03:17:45;4.90;;;4.50;;
6392;SDS011;3229;42.674;23.282;2023-05-28T03:20:11;7.90;;;5.30;;
6392;SDS011;3229;42.674;23.282;2023-05-28T03:22:38;5.23;;;4.83;;
6392;SDS011;3229;42.674;23.282;2023-05-28T03:25:08;5.87;;;5.10;;
6392;SDS011;3229;42.674;23.282;2023-05-28T03:27:35;9.90;;;5.20;;
6392;SDS011;3229;42.674;23.282;2023-05-28T03:30:02;7.03;;;5.60;;
6392;SDS011;3229;42.674;23.282;2023-05-28T03:32:31;7.37;;;4.97;;
6392;SDS011;3229;42.674;23.282;2023-05-28T03:34:58;5.80;;;5.30;;
6392;SDS011;3229;42.674;23.282;2023-05-28T03:37:25;5.37;;;4.93;;
6392;SDS011;3229;42.674;23.282;2023-05-28T03:39:52;6.10;;;5.60;;
6392;SDS011;3229;42.674;23.282;2023-05-28T03:42:20;6.10;;;5.10;;
6392;SDS011;3229;42.674;23.282;2023-05-28T03:44:47;6.60;;;6.00;;
6392;SDS011;3229;42.674;23.282;2023-05-28T03:47:14;7.63;;;6.10;;
6392;SDS011;3229;42.674;23.282;2023-05-28T03:49:40;5.90;;;5.40;;
6392;SDS011;3229;42.674;23.282;2023-05-28T03:52:07;6.33;;;5.73;;
6392;SDS011;3229;42.674;23.282;2023-05-28T03:54:34;6.00;;;5.50;;
6392;SDS011;3229;42.674;23.282;2023-05-28T03:57:01;6.07;;;5.47;;
6392;SDS011;3229;42.674;23.282;2023-05-28T03:59:29;6.27;;;5.70;;
6392;SDS011;3229;42.674;23.282;2023-05-28T04:01:56;5.90;;;5.30;;
6392;SDS011;3229;42.674;23.282;2023-05-28T04:04:23;7.50;;;4.87;;
6392;SDS011;3229;42.674;23.282;2023-05-28T04:06:49;5.63;;;5.13;;
6392;SDS011;3229;42.674;23.282;2023-05-28T04:09:16;6.50;;;5.90;;
6392;SDS011;3229;42.674;23.282;2023-05-28T04:11:43;5.97;;;5.47;;
6392;SDS011;3229;42.674;23.282;2023-05-28T04:14:10;7.00;;;5.27;;
6392;SDS011;3229;42.674;23.282;2023-05-28T04:16:38;5.47;;;4.93;;
6392;SDS011;3229;42.674;23.282;2023-05-28T04:19:05;6.30;;;5.37;;
6392;SDS011;3229;42.674;23.282;2023-05-28T04:21:31;6.03;;;5.43;;
6392;SDS011;3229;42.674;23.282;2023-05-28T04:23:58;6.00;;;5.40;;
6392;SDS011;3229;42.674;23.282;2023-05-28T04:26:25;5.53;;;4.97;;
6392;SDS011;3229;42.674;23.282;2023-05-28T04:28:52;9.33;;;5.63;;
6392;SDS011;3229;42.674;23.282;2023-05-28T04:31:19;6.83;;;5.50;;
6392;SDS011;3229;42.674;23.282;2023-05-28T04:33:48;6.47;;;5.87;;
6392;SDS011;3229;42.674;23.282;2023-05-28T04:36:15;12.27;;;6.30;;
6392;SDS011;3229;42.674;23.282;2023-05-28T04:38:42;7.43;;;6.00;;
6392;SDS011;3229;42.674;23.282;2023-05-28T04:41:08;6.17;;;5.67;;
6392;SDS011;3229;42.674;23.282;2023-05-28T04:43:39;8.87;;;5.80;;
6392;SDS011;3229;42.674;23.282;2023-05-28T04:46:06;6.20;;;5.60;;
6392;SDS011;3229;42.674;23.282;2023-05-28T04:48:33;6.30;;;5.70;;
6392;SDS011;3229;42.674;23.282;2023-05-28T04:51:03;6.17;;;5.57;;
6392;SDS011;3229;42.674;23.282;2023-05-28T04:53:30;6.47;;;5.23;;
6392;SDS011;3229;42.674;23.282;2023-05-28T04:55:58;7.87;;;6.00;;
6392;SDS011;3229;42.674;23.282;2023-05-28T04:58:25;7.50;;;5.40;;
6392;SDS011;3229;42.674;23.282;2023-05-28T05:00:52;7.13;;;6.00;;
6392;SDS011;3229;42.674;23.282;2023-05-28T05:03:20;6.50;;;5.90;;
6392;SDS011;3229;42.674;23.282;2023-05-28T05:05:47;7.40;;;5.93;;
6392;SDS011;3229;42.674;23.282;2023-05-28T05:08:15;7.30;;;5.43;;
6392;SDS011;3229;42.674;23.282;2023-05-28T05:10:42;5.67;;;5.17;;
6392;SDS011;3229;42.674;23.282;2023-05-28T05:13:09;6.37;;;5.53;;
6392;SDS011;3229;42.674;23.282;2023-05-28T05:15:36;8.00;;;5.37;;
6392;SDS011;3229;42.674;23.282;2023-05-28T05:18:02;5.73;;;5.23;;
6392;SDS011;3229;42.674;23.282;2023-05-28T05:20:29;5.50;;;5.00;;
6392;SDS011;3229;42.674;23.282;2023-05-28T05:22:56;6.33;;;5.60;;
6392;SDS011;3229;42.674;23.282;2023-05-28T05:25:24;11.43;;;6.33;;
6392;SDS011;3229;42.674;23.282;2023-05-28T05:27:51;7.97;;;5.57;;
6392;SDS011;3229;42.674;23.282;2023-05-28T05:30:18;6.47;;;5.87;;
6392;SDS011;3229;42.674;23.282;2023-05-28T05:32:44;7.70;;;5.60;;
6392;SDS011;3229;42.674;23.282;2023-05-28T05:35:11;6.33;;;5.53;;
6392;SDS011;3229;42.674;23.282;2023-05-28T05:37:39;7.70;;;6.33;;
6392;SDS011;3229;42.674;23.282;2023-05-28T05:40:07;6.87;;;5.47;;
6392;SDS011;3229;42.674;23.282;2023-05-28T05:42:36;6.40;;;5.27;;
6392;SDS011;3229;42.674;23.282;2023-05-28T05:45:04;6.10;;;5.50;;
6392;SDS011;3229;42.674;23.282;2023-05-28T05:47:31;10.47;;;6.43;;
6392;SDS011;3229;42.674;23.282;2023-05-28T05:49:58;8.20;;;5.43;;
6392;SDS011;3229;42.674;23.282;2023-05-28T05:52:25;5.73;;;5.03;;
6392;SDS011;3229;42.674;23.282;2023-05-28T05:54:51;6.83;;;5.63;;
6392;SDS011;3229;42.674;23.282;2023-05-28T05:57:18;6.87;;;5.23;;
6392;SDS011;3229;42.674;23.282;2023-05-28T05:59:46;6.50;;;5.53;;
6392;SDS011;3229;42.674;23.282;2023-05-28T06:02:13;5.80;;;5.23;;
6392;SDS011;3229;42.674;23.282;2023-05-28T06:04:40;6.00;;;5.20;;
6392;SDS011;3229;42.674;23.282;2023-05-28T06:07:07;7.43;;;5.33;;
6392;SDS011;3229;42.674;23.282;2023-05-28T06:09:33;5.77;;;5.17;;
6392;SDS011;3229;42.674;23.282;2023-05-28T06:12:00;6.80;;;6.10;;
6392;SDS011;3229;42.674;23.282;2023-05-28T06:14:27;6.00;;;5.40;;
6392;SDS011;3229;42.674;23.282;2023-05-28T06:16:55;7.17;;;5.37;;
6392;SDS011;3229;42.674;23.282;2023-05-28T06:19:22;6.13;;;5.13;;
6392;SDS011;3229;42.674;23.282;2023-05-28T06:21:49;6.33;;;5.50;;
6392;SDS011;3229;42.674;23.282;2023-05-28T06:24:17;7.90;;;5.63;;
6392;SDS011;3229;42.674;23.282;2023-05-28T06:26:44;7.23;;;6.40;;
6392;SDS011;3229;42.674;23.282;2023-05-28T06:29:11;8.00;;;6.40;;
6392;SDS011;3229;42.674;23.282;2023-05-28T06:31:37;8.37;;;5.70;;
6392;SDS011;3229;42.674;23.282;2023-05-28T06:34:06;5.97;;;5.37;;
6392;SDS011;3229;42.674;23.282;2023-05-28T06:36:33;7.80;;;5.57;;
6392;SDS011;3229;42.674;23.282;2023-05-28T06:39:01;6.10;;;5.53;;
6392;SDS011;3229;42.674;23.282;2023-05-28T06:41:28;7.50;;;5.27;;
6392;SDS011;3229;42.674;23.282;2023-05-28T06:43:55;5.73;;;5.13;;
6392;SDS011;3229;42.674;23.282;2023-05-28T06:46:21;7.27;;;5.30;;
6392;SDS011;3229;42.674;23.282;2023-05-28T06:48:48;6.47;;;5.67;;
6392;SDS011;3229;42.674;23.282;2023-05-28T06:51:16;9.63;;;5.57;;
6392;SDS011;3229;42.674;23.282;2023-05-28T06:53:43;6.57;;;5.73;;
6392;SDS011;3229;42.674;23.282;2023-05-28T06:56:10;6.63;;;6.03;;
6392;SDS011;3229;42.674;23.282;2023-05-28T06:58:37;10.07;;;6.03;;
6392;SDS011;3229;42.674;23.282;2023-05-28T07:01:04;9.10;;;6.17;;
6392;SDS011;3229;42.674;23.282;2023-05-28T07:03:31;8.33;;;6.93;;
6392;SDS011;3229;42.674;23.282;2023-05-28T07:05:57;7.97;;;6.43;;
6392;SDS011;3229;42.674;23.282;2023-05-28T07:08:26;11.03;;;6.90;;
6392;SDS011;3229;42.674;23.282;2023-05-28T07:10:53;7.63;;;6.63;;
6392;SDS011;3229;42.674;23.282;2023-05-28T07:13:19;8.07;;;7.20;;
6392;SDS011;3229;42.674;23.282;2023-05-28T07:15:46;7.70;;;6.33;;
6392;SDS011;3229;42.674;23.282;2023-05-28T07:18:13;9.50;;;7.43;;
6392;SDS011;3229;42.674;23.282;2023-05-28T07:20:40;9.10;;;7.33;;
6392;SDS011;3229;42.674;23.282;2023-05-28T07:23:06;8.67;;;7.23;;
6392;SDS011;3229;42.674;23.282;2023-05-28T07:25:37;7.57;;;6.73;;
6392;SDS011;3229;42.674;23.282;2023-05-28T07:28:04;8.20;;;7.17;;
6392;SDS011;3229;42.674;23.282;2023-05-28T07:30:31;8.27;;;6.90;;
6392;SDS011;3229;42.674;23.282;2023-05-28T07:32:57;8.23;;;7.43;;
6392;SDS011;3229;42.674;23.282;2023-05-28T07:35:24;10.80;;;6.67;;
6392;SDS011;3229;42.674;23.282;2023-05-28T07:37:51;8.20;;;5.40;;
6392;SDS011;3229;42.674;23.282;2023-05-28T07:40:19;9.00;;;6.40;;
6392;SDS011;3229;42.674;23.282;2023-05-28T07:42:47;10.07;;;8.13;;
6392;SDS011;3229;42.674;23.282;2023-05-28T07:45:14;8.23;;;5.73;;
6392;SDS011;3229;42.674;23.282;2023-05-28T07:47:41;7.40;;;5.53;;
6392;SDS011;3229;42.674;23.282;2023-05-28T07:50:08;7.50;;;5.83;;
6392;SDS011;3229;42.674;23.282;2023-05-28T07:52:35;4.23;;;3.93;;
6392;SDS011;3229;42.674;23.282;2023-05-28T07:55:03;3.87;;;3.47;;
6392;SDS011;3229;42.674;23.282;2023-05-28T07:57:30;5.13;;;3.50;;
6392;SDS011;3229;42.674;23.282;2023-05-28T07:59:58;5.00;;;3.70;;
6392;SDS011;3229;42.674;23.282;2023-05-28T08:02:26;3.43;;;2.93;;
6392;SDS011;3229;42.674;23.282;2023-05-28T08:04:52;4.63;;;3.40;;
6392;SDS011;3229;42.674;23.282;2023-05-28T08:07:19;4.77;;;4.37;;
6392;SDS011;3229;42.674;23.282;2023-05-28T08:09:46;9.27;;;5.13;;
6392;SDS011;3229;42.674;23.282;2023-05-28T08:12:13;4.07;;;3.67;;
6392;SDS011;3229;42.674;23.282;2023-05-28T08:14:40;5.20;;;4.33;;
6392;SDS011;3229;42.674;23.282;2023-05-28T08:17:08;5.23;;;4.67;;
6392;SDS011;3229;42.674;23.282;2023-05-28T08:19:35;7.20;;;3.53;;
6392;SDS011;3229;42.674;23.282;2023-05-28T08:22:02;8.40;;;4.13;;
6392;SDS011;3229;42.674;23.282;2023-05-28T08:24:29;7.57;;;4.60;;
6392;SDS011;3229;42.674;23.282;2023-05-28T08:26:55;9.73;;;5.17;;
6392;SDS011;3229;42.674;23.282;2023-05-28T08:29:22;8.17;;;5.73;;
6392;SDS011;3229;42.674;23.282;2023-05-28T08:31:49;7.03;;;4.90;;
6392;SDS011;3229;42.674;23.282;2023-05-28T08:34:17;7.40;;;4.93;;
6392;SDS011;3229;42.674;23.282;2023-05-28T08:36:44;5.83;;;3.70;;
6392;SDS011;3229;42.674;23.282;2023-05-28T08:39:11;3.30;;;3.00;;
6392;SDS011;3229;42.674;23.282;2023-05-28T08:41:38;3.40;;;3.10;;
6392;SDS011;3229;42.674;23.282;2023-05-28T08:44:05;4.65;;;3.65;;
6392;SDS011;3229;42.674;23.282;2023-05-28T08:46:32;3.80;;;3.42;;
6392;SDS011;3229;42.674;23.282;2023-05-28T08:48:59;3.20;;;2.90;;
6392;SDS011;3229;42.674;23.282;2023-05-28T08:51:27;2.53;;;2.33;;
6392;SDS011;3229;42.674;23.282;2023-05-28T08:53:58;3.75;;;2.63;;
6392;SDS011;3229;42.674;23.282;2023-05-28T08:56:25;3.67;;;2.45;;
6392;SDS011;3229;42.674;23.282;2023-05-28T08:58:52;7.30;;;4.33;;
6392;SDS011;3229;42.674;23.282;2023-05-28T09:01:19;7.13;;;4.22;;
6392;SDS011;3229;42.674;23.282;2023-05-28T09:03:46;5.65;;;3.55;;
6392;SDS011;3229;42.674;23.282;2023-05-28T09:06:13;3.42;;;3.13;;
6392;SDS011;3229;42.674;23.282;2023-05-28T09:08:43;6.70;;;4.75;;
6392;SDS011;3229;42.674;23.282;2023-05-28T09:11:10;7.50;;;4.43;;
6392;SDS011;3229;42.674;23.282;2023-05-28T09:13:41;3.90;;;3.50;;
6392;SDS011;3229;42.674;23.282;2023-05-28T09:16:09;5.15;;;3.10;;
6392;SDS011;3229;42.674;23.282;2023-05-28T09:18:36;5.13;;;4.13;;
6392;SDS011;3229;42.674;23.282;2023-05-28T09:21:06;3.75;;;3.45;;
6392;SDS011;3229;42.674;23.282;2023-05-28T09:23:35;5.28;;;3.30;;
6392;SDS011;3229;42.674;23.282;2023-05-28T09:26:08;8.02;;;5.93;;
6392;SDS011;3229;42.674;23.282;2023-05-28T09:28:35;4.28;;;2.83;;
6392;SDS011;3229;42.674;23.282;2023-05-28T09:31:07;5.53;;;3.22;;
6392;SDS011;3229;42.674;23.282;2023-05-28T09:33:34;2.88;;;2.67;;
6392;SDS011;3229;42.674;23.282;2023-05-28T09:36:07;7.05;;;3.95;;
6392;SDS011;3229;42.674;23.282;2023-05-28T09:38:37;5.53;;;4.18;;
6392;SDS011;3229;42.674;23.282;2023-05-28T09:41:05;6.20;;;4.32;;
6392;SDS011;3229;42.674;23.282;2023-05-28T09:43:44;4.40;;;4.00;;
6392;SDS011;3229;42.674;23.282;2023-05-28T09:46:11;5.25;;;4.75;;
6392;SDS011;3229;42.674;23.282;2023-05-28T09:48:38;4.20;;;3.70;;
6392;SDS011;3229;42.674;23.282;2023-05-28T09:51:05;5.05;;;3.65;;
6392;SDS011;3229;42.674;23.282;2023-05-28T09:53:34;7.30;;;4.60;;
6392;SDS011;3229;42.674;23.282;2023-05-28T09:56:04;7.38;;;5.03;;
6392;SDS011;3229;42.674;23.282;2023-05-28T09:58:33;5.75;;;4.53;;
6392;SDS011;3229;42.674;23.282;2023-05-28T10:01:04;7.85;;;3.97;;
6392;SDS011;3229;42.674;23.282;2023-05-28T10:03:37;7.95;;;5.13;;
6392;SDS011;3229;42.674;23.282;2023-05-28T10:06:06;7.43;;;4.37;;
6392;SDS011;3229;42.674;23.282;2023-05-28T10:08:37;15.35;;;11.68;;
6392;SDS011;3229;42.674;23.282;2023-05-28T10:11:07;5.40;;;4.05;;
6392;SDS011;3229;42.674;23.282;2023-05-28T10:13:35;5.10;;;4.45;;
6392;SDS011;3229;42.674;23.282;2023-05-28T10:16:04;7.97;;;5.07;;
6392;SDS011;3229;42.674;23.282;2023-05-28T10:18:31;3.53;;;3.22;;
6392;SDS011;3229;42.674;23.282;2023-05-28T10:20:58;3.88;;;3.30;;
6392;SDS011;3229;42.674;23.282;2023-05-28T10:23:26;3.85;;;3.45;;
6392;SDS011;3229;42.674;23.282;2023-05-28T10:25:54;4.15;;;3.50;;
6392;SDS011;3229;42.674;23.282;2023-05-28T10:28:22;5.03;;;4.57;;
6392;SDS011;3229;42.674;23.282;2023-05-28T10:30:59;4.53;;;4.13;;
6392;SDS011;3229;42.674;23.282;2023-05-28T10:33:30;4.55;;;3.60;;
6392;SDS011;3229;42.674;23.282;2023-05-28T10:35:58;4.57;;;3.55;;
6392;SDS011;3229;42.674;23.282;2023-05-28T10:38:27;4.07;;;3.55;;
6392;SDS011;3229;42.674;23.282;2023-05-28T10:41:01;3.92;;;3.63;;
6392;SDS011;3229;42.674;23.282;2023-05-28T10:43:41;5.40;;;3.50;;
6392;SDS011;3229;42.674;23.282;2023-05-28T10:46:11;4.00;;;3.60;;
6392;SDS011;3229;42.674;23.282;2023-05-28T10:48:43;6.25;;;4.07;;
6392;SDS011;3229;42.674;23.282;2023-05-28T10:51:42;5.97;;;4.15;;
6392;SDS011;3229;42.674;23.282;2023-05-28T10:54:20;4.50;;;3.70;;
6392;SDS011;3229;42.674;23.282;2023-05-28T10:59:38;5.65;;;3.97;;
6392;SDS011;3229;42.674;23.282;2023-05-28T11:02:18;5.18;;;4.70;;
6392;SDS011;3229;42.674;23.282;2023-05-28T11:04:53;6.40;;;4.50;;
6392;SDS011;3229;42.674;23.282;2023-05-28T11:07:21;5.32;;;4.07;;
6392;SDS011;3229;42.674;23.282;2023-05-28T11:09:55;5.00;;;4.05;;
6392;SDS011;3229;42.674;23.282;2023-05-28T11:12:24;3.85;;;3.55;;
6392;SDS011;3229;42.674;23.282;2023-05-28T11:14:53;4.50;;;4.10;;
6392;SDS011;3229;42.674;23.282;2023-05-28T11:17:21;5.28;;;4.80;;
6392;SDS011;3229;42.674;23.282;2023-05-28T11:19:48;5.03;;;4.53;;
6392;SDS011;3229;42.674;23.282;2023-05-28T11:22:18;8.30;;;5.00;;
6392;SDS011;3229;42.674;23.282;2023-05-28T11:24:52;5.03;;;4.53;;
6392;SDS011;3229;42.674;23.282;2023-05-28T11:27:21;5.03;;;4.63;;
6392;SDS011;3229;42.674;23.282;2023-05-28T11:29:49;7.30;;;5.38;;
6392;SDS011;3229;42.674;23.282;2023-05-28T11:32:17;6.38;;;5.00;;
6392;SDS011;3229;42.674;23.282;2023-05-28T11:34:44;5.25;;;4.70;;
6392;SDS011;3229;42.674;23.282;2023-05-28T11:37:13;7.40;;;4.70;;
6392;SDS011;3229;42.674;23.282;2023-05-28T11:39:48;7.13;;;6.18;;
6392;SDS011;3229;42.674;23.282;2023-05-28T11:42:15;5.38;;;4.72;;
6392;SDS011;3229;42.674;23.282;2023-05-28T11:44:43;6.22;;;5.63;;
6392;SDS011;3229;42.674;23.282;2023-05-28T11:47:10;5.07;;;4.45;;
6392;SDS011;3229;42.674;23.282;2023-05-28T11:49:38;5.55;;;5.05;;
6392;SDS011;3229;42.674;23.282;2023-05-28T11:52:05;6.13;;;4.60;;
6392;SDS011;3229;42.674;23.282;2023-05-28T11:54:36;6.55;;;5.07;;
6392;SDS011;3229;42.674;23.282;2023-05-28T11:57:04;5.22;;;4.72;;
6392;SDS011;3229;42.674;23.282;2023-05-28T11:59:32;6.43;;;4.55;;
6392;SDS011;3229;42.674;23.282;2023-05-28T12:02:09;11.43;;;5.00;;
6392;SDS011;3229;42.674;23.282;2023-05-28T12:04:37;5.50;;;5.00;;
6392;SDS011;3229;42.674;23.282;2023-05-28T12:07:04;6.00;;;5.50;;
6392;SDS011;3229;42.674;23.282;2023-05-28T12:09:30;7.22;;;5.85;;
6392;SDS011;3229;42.674;23.282;2023-05-28T12:12:01;7.68;;;5.65;;
6392;SDS011;3229;42.674;23.282;2023-05-28T12:14:30;7.47;;;5.60;;
6392;SDS011;3229;42.674;23.282;2023-05-28T12:17:03;9.65;;;5.68;;
6392;SDS011;3229;42.674;23.282;2023-05-28T12:19:31;5.80;;;5.22;;
6392;SDS011;3229;42.674;23.282;2023-05-28T12:21:59;7.28;;;4.95;;
6392;SDS011;3229;42.674;23.282;2023-05-28T12:24:26;6.80;;;5.57;;
6392;SDS011;3229;42.674;23.282;2023-05-28T12:26:54;7.30;;;5.40;;
6392;SDS011;3229;42.674;23.282;2023-05-28T12:29:22;5.53;;;4.90;;
6392;SDS011;3229;42.674;23.282;2023-05-28T12:31:56;7.55;;;5.60;;
6392;SDS011;3229;42.674;23.282;2023-05-28T12:34:24;6.10;;;5.20;;
6392;SDS011;3229;42.674;23.282;2023-05-28T12:36:51;7.57;;;5.20;;
6392;SDS011;3229;42.674;23.282;2023-05-28T12:39:17;6.88;;;4.82;;
6392;SDS011;3229;42.674;23.282;2023-05-28T12:41:44;5.35;;;4.45;;
6392;SDS011;3229;42.674;23.282;2023-05-28T12:44:11;10.27;;;4.75;;
6392;SDS011;3229;42.674;23.282;2023-05-28T12:46:39;4.20;;;3.90;;
6392;SDS011;3229;42.674;23.282;2023-05-28T12:49:06;6.00;;;4.78;;
6392;SDS011;3229;42.674;23.282;2023-05-28T12:51:33;5.28;;;4.78;;
6392;SDS011;3229;42.674;23.282;2023-05-28T12:54:00;4.28;;;3.85;;
6392;SDS011;3229;42.674;23.282;2023-05-28T12:56:27;5.38;;;4.60;;
6392;SDS011;3229;42.674;23.282;2023-05-28T12:58:54;4.97;;;4.50;;
6392;SDS011;3229;42.674;23.282;2023-05-28T13:01:21;8.30;;;4.78;;
6392;SDS011;3229;42.674;23.282;2023-05-28T13:03:49;5.47;;;4.45;;
6392;SDS011;3229;42.674;23.282;2023-05-28T13:06:18;6.15;;;4.63;;
6392;SDS011;3229;42.674;23.282;2023-05-28T13:08:45;5.40;;;4.78;;
6392;SDS011;3229;42.674;23.282;2023-05-28T13:11:12;4.70;;;4.30;;
6392;SDS011;3229;42.674;23.282;2023-05-28T13:13:38;7.22;;;4.53;;
6392;SDS011;3229;42.674;23.282;2023-05-28T13:16:05;4.63;;;4.22;;
6392;SDS011;3229;42.674;23.282;2023-05-28T13:18:32;5.55;;;4.57;;
6392;SDS011;3229;42.674;23.282;2023-05-28T13:21:00;5.32;;;4.82;;
6392;SDS011;3229;42.674;23.282;2023-05-28T13:23:27;4.65;;;4.25;;
6392;SDS011;3229;42.674;23.282;2023-05-28T13:25:54;5.80;;;4.85;;
6392;SDS011;3229;42.674;23.282;2023-05-28T13:28:22;5.05;;;4.55;;
6392;SDS011;3229;42.674;23.282;2023-05-28T13:30:49;4.45;;;4.05;;
6392;SDS011;3229;42.674;23.282;2023-05-28T13:33:16;5.55;;;4.55;;
6392;SDS011;3229;42.674;23.282;2023-05-28T13:35:43;6.82;;;4.57;;
6392;SDS011;3229;42.674;23.282;2023-05-28T13:38:11;4.70;;;4.30;;
6392;SDS011;3229;42.674;23.282;2023-05-28T13:40:38;4.47;;;4.05;;
6392;SDS011;3229;42.674;23.282;2023-05-28T13:43:05;5.45;;;4.95;;
6392;SDS011;3229;42.674;23.282;2023-05-28T13:45:33;5.07;;;4.55;;
6392;SDS011;3229;42.674;23.282;2023-05-28T13:47:59;5.10;;;4.60;;
6392;SDS011;3229;42.674;23.282;2023-05-28T13:50:27;4.40;;;4.00;;
6392;SDS011;3229;42.674;23.282;2023-05-28T13:52:55;5.45;;;4.18;;
6392;SDS011;3229;42.674;23.282;2023-05-28T13:55:23;4.93;;;4.53;;
6392;SDS011;3229;42.674;23.282;2023-05-28T13:57:51;5.15;;;4.28;;
6392;SDS011;3229;42.674;23.282;2023-05-28T14:00:17;5.97;;;5.43;;
6392;SDS011;3229;42.674;23.282;2023-05-28T14:02:46;6.10;;;5.55;;
6392;SDS011;3229;42.674;23.282;2023-05-28T14:05:13;5.43;;;4.93;;
6392;SDS011;3229;42.674;23.282;2023-05-28T14:07:40;5.97;;;4.65;;
6392;SDS011;3229;42.674;23.282;2023-05-28T14:10:07;5.93;;;5.43;;
6392;SDS011;3229;42.674;23.282;2023-05-28T14:12:36;6.78;;;5.22;;
6392;SDS011;3229;42.674;23.282;2023-05-28T14:15:03;6.05;;;4.97;;
6392;SDS011;3229;42.674;23.282;2023-05-28T14:17:31;5.68;;;5.18;;
6392;SDS011;3229;42.674;23.282;2023-05-28T14:19:58;5.00;;;4.60;;
6392;SDS011;3229;42.674;23.282;2023-05-28T14:22:24;5.00;;;4.28;;
6392;SDS011;3229;42.674;23.282;2023-05-28T14:24:52;4.75;;;4.35;;
6392;SDS011;3229;42.674;23.282;2023-05-28T14:27:19;7.43;;;4.88;;
6392;SDS011;3229;42.674;23.282;2023-05-28T14:29:47;3.80;;;3.50;;
6392;SDS011;3229;42.674;23.282;2023-05-28T14:32:14;3.90;;;3.60;;
6392;SDS011;3229;42.674;23.282;2023-05-28T14:34:41;3.85;;;3.55;;
6392;SDS011;3229;42.674;23.282;2023-05-28T14:37:08;5.00;;;4.13;;
6392;SDS011;3229;42.674;23.282;2023-05-28T14:39:35;5.00;;;3.63;;
6392;SDS011;3229;42.674;23.282;2023-05-28T14:42:02;4.35;;;3.95;;
6392;SDS011;3229;42.674;23.282;2023-05-28T14:44:29;4.93;;;3.60;;
6392;SDS011;3229;42.674;23.282;2023-05-28T14:46:57;6.32;;;4.45;;
6392;SDS011;3229;42.674;23.282;2023-05-28T14:49:24;5.18;;;4.68;;
6392;SDS011;3229;42.674;23.282;2023-05-28T14:51:53;5.00;;;4.50;;
6392;SDS011;3229;42.674;23.282;2023-05-28T14:54:21;6.13;;;4.95;;
6392;SDS011;3229;42.674;23.282;2023-05-28T14:56:48;4.00;;;3.70;;
6392;SDS011;3229;42.674;23.282;2023-05-28T14:59:15;4.18;;;3.75;;
6392;SDS011;3229;42.674;23.282;2023-05-28T15:01:42;6.97;;;4.07;;
6392;SDS011;3229;42.674;23.282;2023-05-28T15:04:10;4.72;;;3.58;;
6392;SDS011;3229;42.674;23.282;2023-05-28T15:06:36;3.45;;;3.22;;